Time;durP1;ratioP1;P1;durP2;ratioP2;P2;SDS_P1;SDS_P2;PMS_P1;PMS_P2;Temp;Humidity;BMP_temperature;BMP_pressure;BME280_temperature;BME280_humidity;BME280_pressure;Samples;Min_cycle;Max_cycle;Signal;HPM_P1;HPM_P2
2021/07/19 00:01:54;;;;;;;6.83;3.60;;;16.20;99.90;;;;;;5013499;28;20309;-85
2021/07/19 00:04:20;;;;;;;9.53;3.20;;;16.20;99.90;;;;;;5013333;28;20274;-87
2021/07/19 00:06:46;;;;;;;5.40;3.27;;;16.30;99.90;;;;;;4996184;28;20217;-85
2021/07/19 00:09:13;;;;;;;7.57;2.97;;;16.40;99.90;;;;;;4967871;28;20226;-87
2021/07/19 00:11:40;;;;;;;9.57;3.43;;;16.40;99.90;;;;;;5021933;28;20734;-86
2021/07/19 00:14:07;;;;;;;6.37;2.40;;;16.40;99.90;;;;;;5014176;28;20205;-86
2021/07/19 00:16:34;;;;;;;5.93;2.83;;;16.40;99.90;;;;;;5022720;28;20733;-85
2021/07/19 00:19:00;;;;;;;7.43;2.37;;;16.40;99.90;;;;;;5007125;28;20610;-84
2021/07/19 00:21:26;;;;;;;6.70;2.80;;;16.50;99.90;;;;;;5021117;28;20214;-85
2021/07/19 00:23:52;;;;;;;8.07;3.27;;;16.50;99.90;;;;;;5012316;28;20218;-86
2021/07/19 00:26:21;;;;;;;4.57;2.27;;;16.50;99.90;;;;;;5019659;28;20202;-88
2021/07/19 00:28:51;;;;;;;6.17;2.93;;;16.50;99.90;;;;;;5020979;28;20217;-85
2021/07/19 00:31:18;;;;;;;6.60;2.57;;;16.50;99.90;;;;;;5020562;28;20585;-86
2021/07/19 00:33:44;;;;;;;5.77;2.70;;;16.60;99.90;;;;;;5012889;28;20255;-85
2021/07/19 00:36:10;;;;;;;6.20;2.50;;;16.70;99.90;;;;;;5012168;28;20230;-87
2021/07/19 00:38:36;;;;;;;5.00;2.77;;;16.70;99.90;;;;;;5013088;28;20260;-85
2021/07/19 00:41:02;;;;;;;6.83;2.90;;;16.70;99.90;;;;;;5013637;28;20189;-86
2021/07/19 00:43:28;;;;;;;6.13;2.93;;;16.70;99.90;;;;;;5021548;28;20218;-86
2021/07/19 00:45:54;;;;;;;6.53;3.20;;;16.70;99.90;;;;;;5013387;28;20210;-85
2021/07/19 00:48:20;;;;;;;4.43;2.87;;;16.60;99.90;;;;;;5011692;28;20218;-85
2021/07/19 00:50:46;;;;;;;6.70;2.63;;;16.60;99.90;;;;;;5023651;28;20190;-85
2021/07/19 00:53:12;;;;;;;11.20;3.03;;;16.40;99.90;;;;;;5021954;28;20629;-89
2021/07/19 00:55:40;;;;;;;3.90;2.70;;;16.40;99.90;;;;;;5039967;28;20359;-86
2021/07/19 00:58:08;;;;;;;8.03;2.87;;;16.30;99.90;;;;;;5012241;28;20665;-87
2021/07/19 01:00:39;;;;;;;5.90;2.87;;;16.30;99.90;;;;;;5022672;28;20217;-85
2021/07/19 01:03:06;;;;;;;7.50;2.80;;;16.30;99.90;;;;;;5020396;28;20214;-86
2021/07/19 01:05:36;;;;;;;5.53;2.90;;;16.20;99.90;;;;;;5020837;28;20186;-86
2021/07/19 01:08:04;;;;;;;6.97;2.37;;;16.20;99.90;;;;;;5018886;28;20292;-85
2021/07/19 01:10:31;;;;;;;5.13;2.70;;;16.10;99.90;;;;;;5037137;28;21138;-86
2021/07/19 01:12:58;;;;;;;9.17;3.60;;;16.00;99.90;;;;;;5017812;28;20218;-86
2021/07/19 01:15:29;;;;;;;3.83;2.77;;;16.00;99.90;;;;;;5020413;28;20207;-85
2021/07/19 01:17:55;;;;;;;3.70;2.33;;;15.90;99.90;;;;;;5021338;28;20206;-85
2021/07/19 01:20:28;;;;;;;15.23;3.57;;;15.80;99.90;;;;;;5013235;28;20182;-85
2021/07/19 01:23:28;;;;;;;3.87;2.37;;;15.80;99.90;;;;;;5017108;28;20238;-88
2021/07/19 01:26:19;;;;;;;4.87;2.73;;;15.70;99.90;;;;;;5001262;28;20226;-86
2021/07/19 01:28:47;;;;;;;5.60;2.90;;;15.70;99.90;;;;;;5020496;28;20220;-86
2021/07/19 01:31:16;;;;;;;4.97;2.97;;;15.70;99.90;;;;;;5011500;28;20206;-86
2021/07/19 01:33:45;;;;;;;4.10;2.57;;;15.70;99.90;;;;;;5022267;28;20562;-86
2021/07/19 01:36:15;;;;;;;4.33;2.63;;;15.80;99.90;;;;;;5019905;28;20226;-86
2021/07/19 01:38:41;;;;;;;2.83;2.57;;;15.80;99.90;;;;;;5020959;28;20205;-85
2021/07/19 01:41:09;;;;;;;7.40;3.23;;;15.80;99.90;;;;;;5019013;28;20270;-85
2021/07/19 01:43:34;;;;;;;5.83;3.00;;;16.00;99.90;;;;;;5011865;28;20213;-85
2021/07/19 01:46:03;;;;;;;5.37;3.20;;;16.00;99.90;;;;;;5019902;28;20686;-85
2021/07/19 01:48:32;;;;;;;4.10;2.90;;;16.10;99.90;;;;;;5018996;28;20316;-86
2021/07/19 01:50:59;;;;;;;5.17;3.00;;;16.10;99.90;;;;;;5027607;28;20241;-85
2021/07/19 01:53:29;;;;;;;7.97;2.80;;;16.20;99.90;;;;;;5020863;28;20194;-86
2021/07/19 01:55:57;;;;;;;4.03;2.90;;;16.30;99.90;;;;;;5019720;28;21078;-86
2021/07/19 01:58:23;;;;;;;4.63;2.83;;;16.30;99.90;;;;;;5018875;28;20202;-85
2021/07/19 02:00:49;;;;;;;6.07;3.30;;;16.40;99.90;;;;;;5011198;28;20213;-86
2021/07/19 02:03:15;;;;;;;5.83;2.73;;;16.50;99.90;;;;;;5021435;28;20273;-86
2021/07/19 02:05:44;;;;;;;9.77;3.63;;;16.50;99.90;;;;;;5011992;28;20218;-85
2021/07/19 02:08:18;;;;;;;8.80;3.10;;;16.60;99.90;;;;;;5020024;28;20201;-86
2021/07/19 02:10:52;;;;;;;8.40;3.13;;;16.60;99.90;;;;;;5018520;28;20206;-86
2021/07/19 02:13:20;;;;;;;6.20;3.00;;;16.70;99.90;;;;;;5019213;28;20611;-86
2021/07/19 02:15:47;;;;;;;5.13;3.13;;;16.80;99.90;;;;;;5019320;28;20210;-85
2021/07/19 02:18:15;;;;;;;8.57;3.73;;;16.80;99.90;;;;;;5020717;28;20210;-86
2021/07/19 02:20:44;;;;;;;7.87;3.80;;;16.90;99.90;;;;;;5011159;28;20186;-85
2021/07/19 02:23:10;;;;;;;4.13;3.13;;;16.90;99.90;;;;;;5018972;28;20257;-85
2021/07/19 02:25:38;;;;;;;11.57;3.17;;;16.90;99.90;;;;;;5017318;28;20268;-88
2021/07/19 02:28:07;;;;;;;3.33;2.30;;;16.90;99.90;;;;;;5026586;28;20214;-85
2021/07/19 02:30:34;;;;;;;6.87;3.60;;;16.90;99.90;;;;;;4996105;28;20296;-86
2021/07/19 02:33:00;;;;;;;9.87;2.87;;;16.90;99.90;;;;;;5012181;28;20854;-86
2021/07/19 02:35:27;;;;;;;6.60;3.40;;;16.70;99.90;;;;;;5021056;28;20678;-86
2021/07/19 02:37:59;;;;;;;4.37;2.60;;;16.70;99.90;;;;;;5018748;28;20256;-86
2021/07/19 02:40:25;;;;;;;10.37;3.70;;;16.70;99.90;;;;;;5018486;28;20577;-85
2021/07/19 02:42:55;;;;;;;7.57;3.10;;;16.70;99.90;;;;;;5018698;28;20222;-85
2021/07/19 02:45:22;;;;;;;5.87;3.60;;;16.70;99.90;;;;;;5018203;28;20785;-89
2021/07/19 02:47:50;;;;;;;7.97;4.37;;;16.70;99.90;;;;;;5018179;28;20214;-85
2021/07/19 02:50:19;;;;;;;5.37;3.37;;;16.70;99.90;;;;;;5019645;28;20269;-89
2021/07/19 02:52:45;;;;;;;5.40;3.30;;;16.70;99.90;;;;;;5017640;28;20214;-86
2021/07/19 02:55:16;;;;;;;5.03;3.20;;;16.70;99.90;;;;;;5019714;28;20214;-85
2021/07/19 02:57:43;;;;;;;7.13;3.30;;;16.70;99.90;;;;;;5003974;28;20271;-85
2021/07/19 03:00:11;;;;;;;9.03;3.07;;;16.70;99.90;;;;;;5038267;28;20308;-87
2021/07/19 03:02:56;;;;;;;7.23;3.87;;;16.70;99.90;;;;;;5019474;28;20198;-87
2021/07/19 03:05:27;;;;;;;4.67;2.90;;;16.70;99.90;;;;;;5018813;28;20651;-85
2021/07/19 03:07:55;;;;;;;6.10;3.30;;;16.70;99.90;;;;;;5018127;28;20222;-85
2021/07/19 03:10:22;;;;;;;8.10;3.93;;;16.60;99.90;;;;;;5009926;28;20214;-87
2021/07/19 03:12:54;;;;;;;7.73;3.67;;;16.70;99.90;;;;;;5010368;28;20717;-85
2021/07/19 03:15:25;;;;;;;6.13;3.07;;;16.60;99.90;;;;;;5018794;28;20647;-86
2021/07/19 03:17:52;;;;;;;6.87;2.87;;;16.60;99.90;;;;;;5040049;28;20621;-85
2021/07/19 03:20:18;;;;;;;5.53;2.70;;;16.50;99.90;;;;;;5001798;28;20280;-86
2021/07/19 03:22:45;;;;;;;6.00;3.47;;;16.50;99.90;;;;;;5009991;28;20222;-87
2021/07/19 03:25:13;;;;;;;6.70;2.70;;;16.40;99.90;;;;;;4993866;28;20745;-85
2021/07/19 03:27:40;;;;;;;5.17;2.90;;;16.40;99.90;;;;;;5018317;28;20252;-86
2021/07/19 03:30:07;;;;;;;4.03;2.83;;;16.50;99.90;;;;;;5018454;28;20771;-86
2021/07/19 03:32:35;;;;;;;5.73;3.27;;;16.50;99.90;;;;;;5019324;28;20199;-88
2021/07/19 03:35:04;;;;;;;7.53;3.07;;;16.50;99.90;;;;;;5034638;28;20179;-88
2021/07/19 03:37:30;;;;;;;6.27;2.93;;;16.40;99.90;;;;;;5017880;28;21013;-85
2021/07/19 03:39:56;;;;;;;7.37;2.63;;;16.40;99.90;;;;;;5008360;28;20238;-85
2021/07/19 03:42:22;;;;;;;7.43;3.50;;;16.50;99.90;;;;;;5036952;28;20289;-88
2021/07/19 03:44:50;;;;;;;5.53;2.80;;;16.60;99.90;;;;;;5010388;28;20269;-85
2021/07/19 03:47:17;;;;;;;6.57;2.80;;;16.60;99.90;;;;;;5019461;28;20522;-86
2021/07/19 03:49:45;;;;;;;7.97;2.60;;;16.60;99.90;;;;;;5009159;28;20580;-89
2021/07/19 03:52:11;;;;;;;11.03;1.90;;;16.50;99.90;;;;;;5017188;28;20211;-87
2021/07/19 03:54:37;;;;;;;5.43;2.70;;;16.50;99.90;;;;;;4983536;28;20222;-85
2021/07/19 03:57:04;;;;;;;7.83;2.97;;;16.50;99.90;;;;;;5009478;28;20288;-86
2021/07/19 03:59:32;;;;;;;2.40;1.63;;;16.50;99.90;;;;;;5016833;28;20183;-87
2021/07/19 04:02:06;;;;;;;3.03;1.80;;;16.50;99.90;;;;;;5011119;28;20236;-86
2021/07/19 04:04:39;;;;;;;4.33;2.87;;;16.50;99.90;;;;;;5016924;28;20218;-88
2021/07/19 04:07:07;;;;;;;3.57;2.20;;;16.60;99.90;;;;;;5011044;28;20242;-86
2021/07/19 04:09:36;;;;;;;4.10;2.33;;;16.60;99.90;;;;;;5015919;28;20226;-86
2021/07/19 04:12:03;;;;;;;8.10;2.50;;;16.60;99.90;;;;;;5002152;28;20709;-87
2021/07/19 04:14:31;;;;;;;9.57;2.03;;;16.60;99.90;;;;;;5016959;28;20873;-89
2021/07/19 04:16:57;;;;;;;4.63;2.07;;;16.70;99.90;;;;;;5020572;28;20190;-85
2021/07/19 04:19:25;;;;;;;3.83;2.60;;;16.60;99.90;;;;;;5017580;28;20222;-86
2021/07/19 04:21:52;;;;;;;5.20;2.20;;;16.60;99.90;;;;;;5017563;28;20218;-85
2021/07/19 04:24:18;;;;;;;6.50;2.57;;;16.60;99.90;;;;;;5012293;28;20699;-89
2021/07/19 04:26:44;;;;;;;3.17;1.63;;;16.60;99.90;;;;;;5013253;28;20205;-85
2021/07/19 04:29:11;;;;;;;2.93;2.13;;;16.60;99.90;;;;;;5013831;28;20217;-86
2021/07/19 04:31:37;;;;;;;4.43;2.37;;;16.60;99.90;;;;;;4996408;28;20213;-86
2021/07/19 04:34:03;;;;;;;4.50;2.70;;;16.60;99.90;;;;;;5012459;28;20218;-85
2021/07/19 04:36:31;;;;;;;4.97;2.30;;;16.70;99.90;;;;;;4997406;28;20217;-88
2021/07/19 04:38:57;;;;;;;7.03;2.63;;;16.70;99.90;;;;;;5020925;28;20226;-88
2021/07/19 04:41:23;;;;;;;7.90;3.57;;;16.80;99.90;;;;;;4996781;28;20193;-85
2021/07/19 04:43:49;;;;;;;2.60;1.90;;;16.80;99.90;;;;;;5011198;28;20210;-88
2021/07/19 04:46:15;;;;;;;6.53;2.20;;;16.80;99.90;;;;;;5021801;28;20221;-85
2021/07/19 04:48:41;;;;;;;5.53;2.03;;;16.80;99.90;;;;;;5018849;28;20237;-86
2021/07/19 04:51:07;;;;;;;5.63;2.00;;;16.90;99.90;;;;;;4995722;28;20222;-86
2021/07/19 04:53:33;;;;;;;11.30;2.27;;;17.00;99.90;;;;;;5012510;28;20219;-86
2021/07/19 04:56:01;;;;;;;3.20;1.57;;;16.90;99.90;;;;;;5006185;28;20190;-85
2021/07/19 04:58:29;;;;;;;2.93;1.93;;;16.90;99.90;;;;;;5014125;28;20308;-86
2021/07/19 05:01:00;;;;;;;3.13;1.70;;;16.90;99.90;;;;;;5021563;28;20697;-87
2021/07/19 05:03:29;;;;;;;6.13;2.50;;;16.90;99.90;;;;;;5018854;28;20304;-87
2021/07/19 05:05:56;;;;;;;7.00;1.90;;;17.00;99.90;;;;;;5037670;28;20674;-86
2021/07/19 05:08:22;;;;;;;3.10;1.17;;;17.00;99.90;;;;;;5003554;28;20320;-88
2021/07/19 05:10:50;;;;;;;6.07;2.10;;;17.00;99.90;;;;;;5005680;28;20210;-85
2021/07/19 05:13:18;;;;;;;4.63;1.63;;;17.00;99.90;;;;;;5021446;28;20230;-86
2021/07/19 05:15:44;;;;;;;2.07;1.53;;;17.00;99.90;;;;;;5011693;28;20218;-86
2021/07/19 05:18:11;;;;;;;3.07;2.37;;;17.10;99.90;;;;;;4996493;28;20209;-86
2021/07/19 05:20:39;;;;;;;2.43;1.63;;;17.10;99.90;;;;;;5012287;28;20213;-86
2021/07/19 05:23:05;;;;;;;3.40;1.97;;;17.20;99.90;;;;;;5013763;28;20205;-86
2021/07/19 05:25:32;;;;;;;3.67;1.87;;;17.40;99.90;;;;;;4995822;28;20214;-85
2021/07/19 05:28:12;;;;;;;2.93;2.20;;;18.00;99.90;;;;;;5018260;28;20228;-87
2021/07/19 05:30:47;;;;;;;2.93;1.93;;;18.40;99.90;;;;;;5020854;28;20586;-85
2021/07/19 05:33:14;;;;;;;4.50;2.17;;;19.10;99.90;;;;;;5017780;28;20218;-85
2021/07/19 05:35:40;;;;;;;3.13;2.07;;;19.50;99.90;;;;;;5019971;28;20210;-85
2021/07/19 05:38:06;;;;;;;2.07;1.80;;;20.30;99.90;;;;;;5018642;28;20327;-86
2021/07/19 05:40:32;;;;;;;7.07;2.30;;;21.00;99.90;;;;;;5016940;28;20213;-86
2021/07/19 05:42:59;;;;;;;3.53;2.60;;;21.30;99.90;;;;;;5008600;28;20683;-85
2021/07/19 05:45:25;;;;;;;3.80;1.80;;;21.40;99.90;;;;;;5012032;28;20661;-85
2021/07/19 05:47:51;;;;;;;5.13;2.23;;;22.10;99.90;;;;;;5008070;28;20250;-86
2021/07/19 05:50:17;;;;;;;3.73;1.80;;;22.00;99.90;;;;;;5008762;28;20219;-85
2021/07/19 05:52:42;;;;;;;2.40;1.93;;;21.30;99.90;;;;;;5006473;28;20254;-84
2021/07/19 05:55:09;;;;;;;7.30;2.83;;;20.00;99.90;;;;;;5005054;28;20778;-84
2021/07/19 05:57:35;;;;;;;2.83;1.70;;;19.90;99.90;;;;;;4992246;28;21065;-84
2021/07/19 06:00:03;;;;;;;3.37;2.13;;;19.00;99.90;;;;;;4992837;28;20570;-84
2021/07/19 06:02:29;;;;;;;2.67;1.77;;;18.80;99.90;;;;;;5016611;28;20218;-85
2021/07/19 06:04:56;;;;;;;3.40;2.03;;;18.80;99.90;;;;;;4991260;28;20225;-85
2021/07/19 06:07:21;;;;;;;4.87;1.77;;;19.20;99.90;;;;;;5006767;28;20206;-85
2021/07/19 06:09:47;;;;;;;2.60;2.20;;;19.70;99.90;;;;;;5016715;28;20738;-89
2021/07/19 06:12:13;;;;;;;4.17;2.30;;;21.00;99.90;;;;;;5015346;28;20289;-87
2021/07/19 06:14:42;;;;;;;1.83;1.60;;;21.20;99.90;;;;;;4998418;28;20656;-86
2021/07/19 06:17:08;;;;;;;5.87;2.00;;;22.10;99.90;;;;;;5016496;28;20195;-86
2021/07/19 06:19:34;;;;;;;2.63;1.77;;;22.90;99.90;;;;;;4992057;28;20219;-86
2021/07/19 06:22:00;;;;;;;4.23;1.80;;;21.90;99.90;;;;;;5007885;28;20219;-87
2021/07/19 06:24:26;;;;;;;3.13;1.87;;;22.20;99.90;;;;;;5007261;28;21317;-88
2021/07/19 06:26:51;;;;;;;3.60;2.20;;;21.20;99.90;;;;;;4989523;28;20245;-87
2021/07/19 06:29:17;;;;;;;2.97;1.57;;;21.00;99.90;;;;;;4991227;28;20223;-86
2021/07/19 06:31:43;;;;;;;4.27;1.90;;;20.40;99.90;;;;;;4998087;28;20757;-85
2021/07/19 06:34:09;;;;;;;2.90;2.20;;;19.90;99.90;;;;;;5006742;28;20214;-85
2021/07/19 06:36:36;;;;;;;2.87;1.70;;;20.60;99.90;;;;;;4992524;28;20214;-87
2021/07/19 06:39:03;;;;;;;2.90;1.67;;;20.40;99.90;;;;;;5020693;28;20221;-86
2021/07/19 06:41:30;;;;;;;4.20;2.00;;;20.10;99.90;;;;;;5010455;28;20191;-85
2021/07/19 06:43:56;;;;;;;2.43;1.47;;;20.20;99.90;;;;;;5019716;28;20195;-87
2021/07/19 06:46:21;;;;;;;3.47;2.27;;;20.20;99.90;;;;;;4993313;28;20225;-84
2021/07/19 06:48:47;;;;;;;6.67;2.33;;;19.40;99.90;;;;;;4993379;28;20222;-85
2021/07/19 06:51:13;;;;;;;4.30;2.63;;;19.50;99.90;;;;;;5009642;28;20301;-86
2021/07/19 06:53:38;;;;;;;3.67;2.00;;;19.00;99.90;;;;;;5001622;28;20212;-87
2021/07/19 06:56:05;;;;;;;2.10;1.77;;;18.90;99.90;;;;;;4994316;28;20202;-87
2021/07/19 06:58:30;;;;;;;4.97;1.73;;;18.80;99.90;;;;;;5000813;28;20738;-85
2021/07/19 07:00:56;;;;;;;1.87;1.60;;;18.80;99.90;;;;;;4992671;28;20260;-86
2021/07/19 07:03:22;;;;;;;3.80;1.67;;;18.90;99.90;;;;;;4993758;28;20222;-84
2021/07/19 07:05:47;;;;;;;3.97;1.60;;;18.80;99.90;;;;;;5017268;28;20205;-86
2021/07/19 07:08:13;;;;;;;2.70;1.80;;;19.10;99.90;;;;;;4993185;28;20210;-83
2021/07/19 07:10:39;;;;;;;5.40;2.20;;;19.10;99.90;;;;;;5038252;28;20229;-86
2021/07/19 07:13:09;;;;;;;6.73;2.07;;;19.10;99.90;;;;;;4994125;28;20234;-86
2021/07/19 07:15:39;;;;;;;2.90;1.93;;;19.10;99.90;;;;;;4994043;28;20237;-84
2021/07/19 07:18:06;;;;;;;1.60;1.50;;;18.70;99.90;;;;;;5017851;28;20309;-86
2021/07/19 07:20:32;;;;;;;2.23;1.60;;;18.30;99.90;;;;;;5008636;28;20214;-86
2021/07/19 07:22:58;;;;;;;2.77;1.67;;;18.50;99.90;;;;;;5017636;28;20220;-87
2021/07/19 07:25:24;;;;;;;5.63;2.07;;;18.90;99.90;;;;;;5017346;28;20214;-86
2021/07/19 07:27:50;;;;;;;4.97;1.80;;;20.20;99.90;;;;;;5014996;28;20230;-85
2021/07/19 07:30:16;;;;;;;3.07;1.93;;;21.20;99.90;;;;;;5015600;28;20675;-85
2021/07/19 07:32:42;;;;;;;5.17;2.00;;;22.40;99.90;;;;;;5009854;28;20639;-85
2021/07/19 07:35:09;;;;;;;5.13;1.70;;;22.60;99.90;;;;;;5010384;28;20244;-87
2021/07/19 07:37:38;;;;;;;2.10;1.70;;;23.10;99.90;;;;;;5008268;28;20242;-88
2021/07/19 07:40:06;;;;;;;2.90;1.70;;;23.10;99.90;;;;;;4991227;28;20238;-85
2021/07/19 07:42:32;;;;;;;3.27;2.00;;;21.80;99.90;;;;;;5011398;28;20248;-86
2021/07/19 07:44:59;;;;;;;6.60;2.00;;;20.80;99.90;;;;;;5010013;28;20234;-87
2021/07/19 07:47:25;;;;;;;4.07;2.40;;;20.20;99.90;;;;;;5010706;28;20187;-86
2021/07/19 07:49:52;;;;;;;3.53;2.10;;;20.80;99.90;;;;;;5003863;28;20226;-87
2021/07/19 07:52:19;;;;;;;4.67;2.13;;;20.90;99.90;;;;;;5000679;28;20245;-85
2021/07/19 07:54:46;;;;;;;5.73;2.20;;;20.80;99.90;;;;;;5008959;28;20219;-85
2021/07/19 07:57:12;;;;;;;5.47;2.13;;;21.40;99.90;;;;;;5011392;28;20312;-85
2021/07/19 07:59:38;;;;;;;3.30;2.03;;;21.30;99.90;;;;;;5020939;28;20174;-87
2021/07/19 08:02:05;;;;;;;5.15;2.00;;;21.20;99.90;;;;;;5023213;28;20241;-85
2021/07/19 08:04:31;;;;;;;2.20;1.75;;;21.40;99.90;;;;;;5003162;28;20292;-88
2021/07/19 08:06:57;;;;;;;4.30;1.70;;;21.90;99.90;;;;;;5012722;28;20309;-84
2021/07/19 08:09:24;;;;;;;4.53;1.77;;;22.80;99.90;;;;;;5039816;28;20222;-86
2021/07/19 08:11:50;;;;;;;3.97;2.15;;;22.30;99.90;;;;;;5017883;28;20191;-86
2021/07/19 08:14:16;;;;;;;4.23;2.00;;;22.00;99.90;;;;;;5023610;28;20698;-86
2021/07/19 08:16:42;;;;;;;5.73;2.03;;;20.70;99.90;;;;;;4996869;28;20547;-86
2021/07/19 08:19:09;;;;;;;3.13;1.73;;;20.70;99.90;;;;;;5019955;28;20320;-86
2021/07/19 08:21:37;;;;;;;2.87;2.10;;;20.00;99.90;;;;;;5021668;28;20221;-86
2021/07/19 08:24:03;;;;;;;4.57;2.33;;;19.70;99.90;;;;;;5012811;28;20207;-86
2021/07/19 08:26:29;;;;;;;4.20;1.53;;;19.60;99.90;;;;;;5013849;28;20190;-87
2021/07/19 08:28:55;;;;;;;3.40;2.60;;;19.70;99.90;;;;;;5012383;28;20293;-88
2021/07/19 08:31:26;;;;;;;2.77;2.10;;;20.10;99.90;;;;;;5012938;28;20694;-85
2021/07/19 08:33:53;;;;;;;3.47;1.90;;;21.30;99.90;;;;;;5010751;28;20297;-85
2021/07/19 08:36:19;;;;;;;4.00;2.60;;;22.30;99.90;;;;;;5020208;28;20820;-87
2021/07/19 08:38:46;;;;;;;4.60;1.80;;;23.10;99.90;;;;;;5002704;28;20225;-87
2021/07/19 08:41:12;;;;;;;3.00;1.67;;;22.70;99.90;;;;;;5012130;28;20194;-86
2021/07/19 08:43:39;;;;;;;4.27;2.10;;;21.50;99.90;;;;;;4995392;28;20214;-84
2021/07/19 08:46:06;;;;;;;4.22;1.92;;;21.80;99.90;;;;;;5019934;28;20341;-87
2021/07/19 08:48:32;;;;;;;7.15;2.15;;;21.30;99.90;;;;;;5021137;28;21415;-87
2021/07/19 08:50:59;;;;;;;6.27;2.13;;;20.70;99.90;;;;;;5012789;28;20686;-86
2021/07/19 08:53:27;;;;;;;3.90;1.33;;;20.90;99.90;;;;;;5021973;28;20669;-84
2021/07/19 08:55:55;;;;;;;2.80;1.70;;;21.20;99.90;;;;;;5021945;28;20275;-86
2021/07/19 08:58:22;;;;;;;5.13;1.70;;;21.70;99.90;;;;;;5018695;28;20225;-87
2021/07/19 09:00:48;;;;;;;2.37;1.50;;;21.60;99.90;;;;;;5021788;28;20309;-87
2021/07/19 09:03:14;;;;;;;3.00;1.80;;;22.00;99.90;;;;;;5020807;28;20293;-87
2021/07/19 09:05:40;;;;;;;3.63;1.75;;;22.90;99.90;;;;;;5017648;28;20179;-85
2021/07/19 09:08:06;;;;;;;4.95;2.55;;;23.40;99.90;;;;;;5012040;28;20198;-87
2021/07/19 09:10:32;;;;;;;2.85;2.03;;;22.40;99.90;;;;;;5011538;28;20250;-86
2021/07/19 09:12:59;;;;;;;3.90;2.60;;;21.60;99.90;;;;;;5012278;28;20691;-87
2021/07/19 09:15:38;;;;;;;3.83;2.47;;;22.20;99.90;;;;;;5022138;28;20221;-86
2021/07/19 09:18:06;;;;;;;3.47;1.75;;;24.10;99.90;;;;;;5011463;28;20627;-85
2021/07/19 09:20:40;;;;;;;5.18;2.45;;;26.10;99.90;;;;;;5018630;28;20559;-87
2021/07/19 09:23:08;;;;;;;3.20;2.30;;;25.80;99.90;;;;;;5019497;28;20184;-86
2021/07/19 09:25:34;;;;;;;5.13;2.28;;;24.90;99.90;;;;;;5019728;28;20218;-87
2021/07/19 09:28:18;;;;;;;2.75;2.40;;;25.50;99.90;;;;;;5018407;28;20732;-87
2021/07/19 09:30:44;;;;;;;3.78;2.42;;;26.80;99.90;;;;;;5006156;28;20211;-85
2021/07/19 09:33:12;;;;;;;4.32;2.80;;;24.70;99.90;;;;;;5011921;28;20210;-85
2021/07/19 09:35:46;;;;;;;7.47;3.42;;;23.10;99.90;;;;;;5020638;28;20186;-86
2021/07/19 09:38:14;;;;;;;6.88;2.42;;;23.20;99.90;;;;;;5035067;28;20606;-85
2021/07/19 09:40:42;;;;;;;4.50;2.30;;;22.60;99.90;;;;;;5017979;28;20211;-86
2021/07/19 09:43:20;;;;;;;4.60;2.83;;;22.70;99.90;;;;;;5012680;28;20257;-87
2021/07/19 09:45:56;;;;;;;4.63;2.50;;;22.70;99.90;;;;;;5019101;28;20299;-86
2021/07/19 09:48:22;;;;;;;4.95;2.38;;;22.90;99.90;;;;;;5012069;28;20712;-86
2021/07/19 09:50:51;;;;;;;4.95;2.40;;;23.40;99.90;;;;;;5019434;28;20170;-86
2021/07/19 09:53:38;;;;;;;5.80;3.00;;;22.80;99.90;;;;;;5038126;28;20249;-86
2021/07/19 09:56:15;;;;;;;4.20;2.67;;;22.20;99.90;;;;;;5020090;28;20217;-87
2021/07/19 09:58:47;;;;;;;3.92;2.60;;;23.00;99.90;;;;;;5017064;28;20225;-84
2021/07/19 10:01:25;;;;;;;3.28;2.15;;;24.50;99.90;;;;;;5012078;28;20236;-84
2021/07/19 10:04:04;;;;;;;3.40;2.30;;;24.40;99.90;;;;;;5019468;28;20316;-88
2021/07/19 10:06:30;;;;;;;2.88;2.20;;;24.00;99.90;;;;;;5018916;28;21262;-87
2021/07/19 10:08:58;;;;;;;4.88;2.15;;;23.20;99.90;;;;;;5011458;28;20221;-87
2021/07/19 10:11:28;;;;;;;5.75;2.70;;;22.50;99.90;;;;;;5018637;28;20235;-88
2021/07/19 10:13:55;;;;;;;3.97;2.20;;;22.30;99.90;;;;;;5009465;28;20231;-88
2021/07/19 10:16:22;;;;;;;5.90;2.85;;;22.80;99.90;;;;;;4994998;28;20244;-88
2021/07/19 10:18:51;;;;;;;4.78;2.17;;;22.90;99.90;;;;;;4994257;28;20218;-87
2021/07/19 10:21:18;;;;;;;5.53;2.53;;;22.20;99.90;;;;;;5017537;28;20708;-87
2021/07/19 10:23:44;;;;;;;5.13;2.60;;;23.40;99.90;;;;;;5009471;28;20197;-86
2021/07/19 10:26:11;;;;;;;4.40;2.42;;;24.60;99.90;;;;;;5010981;28;20232;-88
2021/07/19 10:28:38;;;;;;;4.38;2.45;;;25.10;99.90;;;;;;5011043;28;20234;-86
2021/07/19 10:31:04;;;;;;;5.20;3.25;;;23.20;99.90;;;;;;5002005;28;20214;-87
2021/07/19 10:33:31;;;;;;;5.43;2.45;;;22.80;99.90;;;;;;5009632;28;20213;-85
2021/07/19 10:36:01;;;;;;;7.97;2.92;;;23.30;99.90;;;;;;5018271;28;20230;-85
2021/07/19 10:38:30;;;;;;;5.22;2.70;;;24.30;99.90;;;;;;5036209;28;20238;-89
2021/07/19 10:40:59;;;;;;;6.03;3.03;;;24.90;99.90;;;;;;5019965;28;20221;-87
2021/07/19 10:43:28;;;;;;;4.07;2.65;;;22.50;99.90;;;;;;5010820;28;20270;-87
2021/07/19 10:45:54;;;;;;;4.93;2.63;;;22.80;99.90;;;;;;5001483;28;20700;-83
2021/07/19 10:48:31;;;;;;;4.72;2.60;;;23.10;99.90;;;;;;4991934;28;20238;-87
2021/07/19 10:50:59;;;;;;;4.68;2.95;;;23.60;99.90;;;;;;5017751;28;20217;-86
2021/07/19 10:53:30;;;;;;;4.63;2.50;;;23.60;99.90;;;;;;5017481;28;20179;-86
2021/07/19 10:56:07;;;;;;;3.85;2.40;;;23.50;99.90;;;;;;5018409;28;20300;-86
2021/07/19 10:58:41;;;;;;;4.75;2.80;;;22.90;99.90;;;;;;5034581;28;20214;-86
2021/07/19 11:01:28;;;;;;;4.38;2.55;;;22.50;99.90;;;;;;5033966;28;20663;-86
2021/07/19 11:03:57;;;;;;;3.58;2.67;;;22.50;99.90;;;;;;5017848;28;20545;-85
2021/07/19 11:06:38;;;;;;;7.57;2.88;;;22.10;99.90;;;;;;4999788;28;21295;-86
2021/07/19 11:09:09;;;;;;;4.85;3.05;;;22.10;99.90;;;;;;5018182;28;20235;-85
2021/07/19 11:11:36;;;;;;;5.82;2.95;;;22.80;99.90;;;;;;5037543;28;20186;-89
2021/07/19 11:14:05;;;;;;;4.35;2.80;;;23.20;99.90;;;;;;5017217;28;20635;-86
2021/07/19 11:16:46;;;;;;;6.32;3.28;;;23.70;99.90;;;;;;5017328;28;20233;-88
2021/07/19 11:19:13;;;;;;;6.82;3.10;;;23.60;99.90;;;;;;5020793;28;21140;-90
2021/07/19 11:21:39;;;;;;;4.45;2.97;;;23.30;99.90;;;;;;4999666;28;20222;-87
2021/07/19 11:24:12;;;;;;;6.80;2.97;;;23.20;99.90;;;;;;5018054;28;20229;-88
2021/07/19 11:26:52;;;;;;;5.20;3.40;;;23.40;99.90;;;;;;5019895;28;20720;-88
2021/07/19 11:29:35;;;;;;;7.88;3.28;;;23.60;99.90;;;;;;5017353;28;20284;-88
2021/07/19 11:32:13;;;;;;;3.88;2.75;;;23.90;99.90;;;;;;5020864;28;20212;-88
2021/07/19 11:34:40;;;;;;;5.72;2.90;;;22.90;99.90;;;;;;5016576;28;20210;-88
2021/07/19 11:37:06;;;;;;;5.72;3.05;;;22.70;99.90;;;;;;4997934;28;20257;-89
2021/07/19 11:39:53;;;;;;;9.30;3.80;;;22.40;99.90;;;;;;5024883;28;20218;-88
2021/07/19 11:42:35;;;;;;;5.10;3.33;;;21.80;99.90;;;;;;5042098;28;20709;-88
2021/07/19 11:45:07;;;;;;;4.45;3.13;;;22.20;99.90;;;;;;5024567;28;20213;-88
2021/07/19 11:47:48;;;;;;;4.88;2.85;;;22.00;99.90;;;;;;5025368;28;20174;-87
2021/07/19 11:50:17;;;;;;;6.03;3.00;;;21.40;99.90;;;;;;5024932;28;20190;-85
2021/07/19 11:52:45;;;;;;;5.97;3.70;;;22.20;99.90;;;;;;5039257;28;21302;-88
2021/07/19 11:55:13;;;;;;;4.80;3.03;;;21.90;99.90;;;;;;5016346;28;20213;-89
2021/07/19 11:57:50;;;;;;;5.75;3.63;;;21.70;99.90;;;;;;5024553;28;20709;-89
2021/07/19 12:00:32;;;;;;;5.55;3.03;;;21.80;99.90;;;;;;5026022;28;20250;-88
2021/07/19 12:03:05;;;;;;;6.47;2.97;;;21.70;99.90;;;;;;5024813;28;20614;-89
2021/07/19 12:05:33;;;;;;;12.17;3.93;;;21.50;99.90;;;;;;5039069;28;20604;-88
2021/07/19 12:08:07;;;;;;;4.73;2.93;;;22.00;99.90;;;;;;5009664;28;20210;-87
2021/07/19 12:10:38;;;;;;;5.20;2.93;;;21.40;99.90;;;;;;5026364;28;20272;-87
2021/07/19 12:13:09;;;;;;;5.70;2.67;;;21.40;99.90;;;;;;5020236;28;20217;-87
2021/07/19 12:15:37;;;;;;;6.17;3.83;;;21.70;99.90;;;;;;5026423;28;20293;-87
2021/07/19 12:18:03;;;;;;;6.37;3.80;;;21.60;99.90;;;;;;5007731;28;20214;-88
2021/07/19 12:20:30;;;;;;;6.53;3.60;;;21.40;99.90;;;;;;5000108;28;20179;-87
2021/07/19 12:22:57;;;;;;;7.40;3.77;;;21.40;99.90;;;;;;5000185;28;20202;-87
2021/07/19 12:25:23;;;;;;;4.60;2.97;;;20.90;99.90;;;;;;5016540;28;20274;-87
2021/07/19 12:28:02;;;;;;;6.70;2.50;;;20.90;99.90;;;;;;5024290;28;20624;-86
2021/07/19 12:30:29;;;;;;;4.00;2.30;;;21.40;99.90;;;;;;5017471;28;20305;-87
2021/07/19 12:32:54;;;;;;;7.17;2.83;;;21.20;99.90;;;;;;5015112;28;20222;-87
2021/07/19 12:35:24;;;;;;;5.10;2.67;;;20.80;99.90;;;;;;5016594;28;20248;-86
2021/07/19 12:38:12;;;;;;;7.13;3.20;;;20.60;99.90;;;;;;5016035;28;20234;-85
2021/07/19 12:40:38;;;;;;;8.50;3.70;;;20.10;99.90;;;;;;5015649;28;20693;-85
2021/07/19 12:43:04;;;;;;;5.10;3.83;;;20.20;99.90;;;;;;4997267;28;20271;-86
2021/07/19 12:45:30;;;;;;;7.00;3.80;;;20.70;99.90;;;;;;4996145;28;20214;-85
2021/07/19 12:47:57;;;;;;;5.47;3.60;;;20.90;99.90;;;;;;5005524;28;20218;-86
2021/07/19 12:50:23;;;;;;;5.97;3.73;;;20.80;99.90;;;;;;5025421;28;20231;-85
2021/07/19 12:52:49;;;;;;;7.23;3.60;;;21.20;99.90;;;;;;4996446;28;20205;-84